PWSweather.com
Personal Weather Stations
Station Observations
KMIEASTT1
Tawas Bay, East Tawas, MI 48730

Tawas BayEast Tawas, MI 48730

Lat: 44.28, Lon: -83.48

Elevation: 600

Station Type: Davis VantagePro

http://www.tawasbayweather.com

High Low Average
Temperature 29.0°F-1.7°C 26.5°F-3.1°C 27.4°F-2.6°C
Dew Point 25.6°F-3.6°C 20.7°F-6.3°C 23.1°F-4.9°C
Winds 10.0 mph 16.1 kmh Calm Calm 3.0 mph WSW4.8 kmh WSW
Wind Gusts 12.0 mph19.3 kmh 2.0 mph3.2 kmh 5.0 mph8.0 kmh
Humidity 87% 78% 83%
Pressure 30.42 in1030.1 mb 30.28 in1025.4 mb -
Precipitation 0.00 in0.0 mm - -
Hour Temp Dew Point Humidity Winds Wind Gusts Pressure Precip Precip Rate Daily Precip Total
12:01 AM 26.8°F-2.9°C 20.6°F-6.3°C 77% 5.0 mph NW8.0 kmh NW 7.0 mph11.3 kmh 30.34 in1027.4 mb 0.00 in0.0 mm 0.00 in/hr0.0 mm/hr 0.00 in0.0 mm
12:15 AM 26.7°F-2.9°C 20.5°F-6.4°C 77% 5.0 mph NW8.0 kmh NW 7.0 mph11.3 kmh 30.35 in1027.8 mb 0.00 in0.0 mm 0.00 in/hr0.0 mm/hr 0.00 in0.0 mm
12:30 AM 26.6°F-3.0°C 20.4°F-6.4°C 77% 7.0 mph WNW11.3 kmh WNW 11.0 mph17.7 kmh 30.34 in1027.4 mb 0.00 in0.0 mm 0.00 in/hr0.0 mm/hr 0.00 in0.0 mm
12:45 AM 26.6°F-3.0°C 20.4°F-6.4°C 77% 3.0 mph NNW4.8 kmh NNW 6.0 mph9.7 kmh 30.33 in1027.1 mb 0.00 in0.0 mm 0.00 in/hr0.0 mm/hr 0.00 in0.0 mm
01:00 AM 26.6°F-3.0°C 20.7°F-6.3°C 78% 3.0 mph NW4.8 kmh NW 4.0 mph6.4 kmh 30.33 in1027.1 mb 0.00 in0.0 mm 0.00 in/hr0.0 mm/hr 0.00 in0.0 mm
01:16 AM 26.6°F-3.0°C 20.7°F-6.3°C 78% 3.0 mph NNW4.8 kmh NNW 7.0 mph11.3 kmh 30.33 in1027.1 mb 0.00 in0.0 mm 0.00 in/hr0.0 mm/hr 0.00 in0.0 mm
01:30 AM 26.5°F-3.1°C 20.9°F-6.2°C 79% 2.0 mph NW3.2 kmh NW 3.0 mph4.8 kmh 30.32 in1026.8 mb 0.00 in0.0 mm 0.00 in/hr0.0 mm/hr 0.00 in0.0 mm
01:45 AM 26.6°F-3.0°C 21.0°F-6.1°C 79% 1.0 mph WNW1.6 kmh WNW 4.0 mph6.4 kmh 30.31 in1026.4 mb 0.00 in0.0 mm 0.00 in/hr0.0 mm/hr 0.00 in0.0 mm
02:01 AM 26.5°F-3.1°C 20.9°F-6.2°C 79% 5.0 mph WNW8.0 kmh WNW 5.0 mph8.0 kmh 30.32 in1026.8 mb 0.00 in0.0 mm 0.00 in/hr0.0 mm/hr 0.00 in0.0 mm
02:15 AM 26.5°F-3.1°C 20.9°F-6.2°C 79% 2.0 mph NW3.2 kmh NW 4.0 mph6.4 kmh 30.33 in1027.1 mb 0.00 in0.0 mm 0.00 in/hr0.0 mm/hr 0.00 in0.0 mm
02:30 AM 26.5°F-3.1°C 21.2°F-6.0°C 80% 4.0 mph NNW6.4 kmh NNW 5.0 mph8.0 kmh 30.34 in1027.4 mb 0.00 in0.0 mm 0.00 in/hr0.0 mm/hr 0.00 in0.0 mm
02:45 AM 26.5°F-3.1°C 21.2°F-6.0°C 80% 3.0 mph NW4.8 kmh NW 7.0 mph11.3 kmh 30.35 in1027.8 mb 0.00 in0.0 mm 0.00 in/hr0.0 mm/hr 0.00 in0.0 mm
03:01 AM 26.5°F-3.1°C 21.2°F-6.0°C 80% 4.0 mph NW6.4 kmh NW 6.0 mph9.7 kmh 30.36 in1028.1 mb 0.00 in0.0 mm 0.00 in/hr0.0 mm/hr 0.00 in0.0 mm
03:15 AM 26.6°F-3.0°C 21.6°F-5.8°C 81% 2.0 mph W3.2 kmh W 4.0 mph6.4 kmh 30.36 in1028.1 mb 0.00 in0.0 mm 0.00 in/hr0.0 mm/hr 0.00 in0.0 mm
03:30 AM 26.6°F-3.0°C 21.6°F-5.8°C 81% 4.0 mph WNW6.4 kmh WNW 4.0 mph6.4 kmh 30.38 in1028.8 mb 0.00 in0.0 mm 0.00 in/hr0.0 mm/hr 0.00 in0.0 mm
03:45 AM 26.7°F-2.9°C 21.7°F-5.7°C 81% 3.0 mph WNW4.8 kmh WNW 5.0 mph8.0 kmh 30.40 in1029.5 mb 0.00 in0.0 mm 0.00 in/hr0.0 mm/hr 0.00 in0.0 mm
04:01 AM 26.8°F-2.9°C 21.8°F-5.7°C 81% 2.0 mph NW3.2 kmh NW 7.0 mph11.3 kmh 30.40 in1029.5 mb 0.00 in0.0 mm 0.00 in/hr0.0 mm/hr 0.00 in0.0 mm
04:15 AM 26.8°F-2.9°C 22.1°F-5.5°C 82% Calm Calm 3.0 mph4.8 kmh 30.40 in1029.5 mb 0.00 in0.0 mm 0.00 in/hr0.0 mm/hr 0.00 in0.0 mm
04:31 AM 26.8°F-2.9°C 22.1°F-5.5°C 82% 4.0 mph NNW6.4 kmh NNW 6.0 mph9.7 kmh 30.40 in1029.5 mb 0.00 in0.0 mm 0.00 in/hr0.0 mm/hr 0.00 in0.0 mm
04:45 AM 26.9°F-2.8°C 22.2°F-5.4°C 82% 3.0 mph NW4.8 kmh NW 4.0 mph6.4 kmh 30.39 in1029.1 mb 0.00 in0.0 mm 0.00 in/hr0.0 mm/hr 0.00 in0.0 mm
05:01 AM 26.9°F-2.8°C 22.2°F-5.4°C 82% 1.0 mph NW1.6 kmh NW 3.0 mph4.8 kmh 30.39 in1029.1 mb 0.00 in0.0 mm 0.00 in/hr0.0 mm/hr 0.00 in0.0 mm
05:15 AM 26.8°F-2.9°C 22.3°F-5.4°C 83% 2.0 mph WNW3.2 kmh WNW 4.0 mph6.4 kmh 30.40 in1029.5 mb 0.00 in0.0 mm 0.00 in/hr0.0 mm/hr 0.00 in0.0 mm
05:30 AM 26.8°F-2.9°C 22.6°F-5.2°C 84% 3.0 mph WSW4.8 kmh WSW 7.0 mph11.3 kmh 30.42 in1030.1 mb 0.00 in0.0 mm 0.00 in/hr0.0 mm/hr 0.00 in0.0 mm
05:45 AM 26.8°F-2.9°C 22.1°F-5.5°C 82% 3.0 mph W4.8 kmh W 10.0 mph16.1 kmh 30.42 in1030.1 mb 0.00 in0.0 mm 0.00 in/hr0.0 mm/hr 0.00 in0.0 mm
06:00 AM 26.8°F-2.9°C 22.3°F-5.4°C 83% 2.0 mph WNW3.2 kmh WNW 4.0 mph6.4 kmh 30.40 in1029.5 mb 0.00 in0.0 mm 0.00 in/hr0.0 mm/hr 0.00 in0.0 mm
06:15 AM 26.8°F-2.9°C 22.3°F-5.4°C 83% 1.0 mph W1.6 kmh W 4.0 mph6.4 kmh 30.41 in1029.8 mb 0.00 in0.0 mm 0.00 in/hr0.0 mm/hr 0.00 in0.0 mm
06:31 AM 26.9°F-2.8°C 22.4°F-5.3°C 83% 1.0 mph NW1.6 kmh NW 6.0 mph9.7 kmh 30.41 in1029.8 mb 0.00 in0.0 mm 0.00 in/hr0.0 mm/hr 0.00 in0.0 mm
06:45 AM 26.8°F-2.9°C 22.3°F-5.4°C 83% 3.0 mph NW4.8 kmh NW 7.0 mph11.3 kmh 30.41 in1029.8 mb 0.00 in0.0 mm 0.00 in/hr0.0 mm/hr 0.00 in0.0 mm
07:01 AM 26.8°F-2.9°C 22.3°F-5.4°C 83% 4.0 mph NW6.4 kmh NW 7.0 mph11.3 kmh 30.41 in1029.8 mb 0.00 in0.0 mm 0.00 in/hr0.0 mm/hr 0.00 in0.0 mm
07:15 AM 26.8°F-2.9°C 22.3°F-5.4°C 83% 3.0 mph NW4.8 kmh NW 5.0 mph8.0 kmh 30.41 in1029.8 mb 0.00 in0.0 mm 0.00 in/hr0.0 mm/hr 0.00 in0.0 mm
07:31 AM 26.8°F-2.9°C 22.3°F-5.4°C 83% 3.0 mph NW4.8 kmh NW 4.0 mph6.4 kmh 30.40 in1029.5 mb 0.00 in0.0 mm 0.00 in/hr0.0 mm/hr 0.00 in0.0 mm
07:45 AM 26.7°F-2.9°C 22.2°F-5.4°C 83% 5.0 mph WNW8.0 kmh WNW 6.0 mph9.7 kmh 30.40 in1029.5 mb 0.00 in0.0 mm 0.00 in/hr0.0 mm/hr 0.00 in0.0 mm
08:01 AM 26.6°F-3.0°C 22.1°F-5.5°C 83% 2.0 mph W3.2 kmh W 4.0 mph6.4 kmh 30.39 in1029.1 mb 0.00 in0.0 mm 0.00 in/hr0.0 mm/hr 0.00 in0.0 mm
08:16 AM 26.7°F-2.9°C 22.5°F-5.3°C 84% 3.0 mph NNW4.8 kmh NNW 5.0 mph8.0 kmh 30.39 in1029.1 mb 0.00 in0.0 mm 0.00 in/hr0.0 mm/hr 0.00 in0.0 mm
08:30 AM 26.6°F-3.0°C 22.1°F-5.5°C 83% 3.0 mph WNW4.8 kmh WNW 5.0 mph8.0 kmh 30.38 in1028.8 mb 0.00 in0.0 mm 0.00 in/hr0.0 mm/hr 0.00 in0.0 mm
08:45 AM 26.5°F-3.1°C 22.3°F-5.4°C 84% 3.0 mph NNW4.8 kmh NNW 7.0 mph11.3 kmh 30.38 in1028.8 mb 0.00 in0.0 mm 0.00 in/hr0.0 mm/hr 0.00 in0.0 mm
09:01 AM 26.5°F-3.1°C 22.6°F-5.2°C 85% 1.0 mph WSW1.6 kmh WSW 4.0 mph6.4 kmh 30.39 in1029.1 mb 0.00 in0.0 mm 0.00 in/hr0.0 mm/hr 0.00 in0.0 mm
09:15 AM 26.6°F-3.0°C 22.4°F-5.3°C 84% 2.0 mph W3.2 kmh W 4.0 mph6.4 kmh 30.39 in1029.1 mb 0.00 in0.0 mm 0.00 in/hr0.0 mm/hr 0.00 in0.0 mm
09:30 AM 26.5°F-3.1°C 22.3°F-5.4°C 84% 2.0 mph WNW3.2 kmh WNW 2.0 mph3.2 kmh 30.40 in1029.5 mb 0.00 in0.0 mm 0.00 in/hr0.0 mm/hr 0.00 in0.0 mm
09:46 AM 26.5°F-3.1°C 22.6°F-5.2°C 85% 7.0 mph WSW11.3 kmh WSW 8.0 mph12.9 kmh 30.41 in1029.8 mb 0.00 in0.0 mm 0.00 in/hr0.0 mm/hr 0.00 in0.0 mm
10:02 AM 26.5°F-3.1°C 22.6°F-5.2°C 85% 2.0 mph WNW3.2 kmh WNW 3.0 mph4.8 kmh 30.42 in1030.1 mb 0.00 in0.0 mm 0.00 in/hr0.0 mm/hr 0.00 in0.0 mm
10:16 AM 26.6°F-3.0°C 22.4°F-5.3°C 84% 1.0 mph WNW1.6 kmh WNW 5.0 mph8.0 kmh 30.42 in1030.1 mb 0.00 in0.0 mm 0.00 in/hr0.0 mm/hr 0.00 in0.0 mm
10:30 AM 26.7°F-2.9°C 22.5°F-5.3°C 84% 3.0 mph WNW4.8 kmh WNW 4.0 mph6.4 kmh 30.41 in1029.8 mb 0.00 in0.0 mm 0.00 in/hr0.0 mm/hr 0.00 in0.0 mm
10:45 AM 26.9°F-2.8°C 22.7°F-5.2°C 84% 2.0 mph WNW3.2 kmh WNW 5.0 mph8.0 kmh 30.41 in1029.8 mb 0.00 in0.0 mm 0.00 in/hr0.0 mm/hr 0.00 in0.0 mm
11:01 AM 27.0°F-2.8°C 22.8°F-5.1°C 84% 3.0 mph NW4.8 kmh NW 4.0 mph6.4 kmh 30.40 in1029.5 mb 0.00 in0.0 mm 0.00 in/hr0.0 mm/hr 0.00 in0.0 mm
11:16 AM 27.1°F-2.7°C 22.6°F-5.2°C 83% 3.0 mph NW4.8 kmh NW 5.0 mph8.0 kmh 30.41 in1029.8 mb 0.00 in0.0 mm 0.00 in/hr0.0 mm/hr 0.00 in0.0 mm
11:30 AM 27.2°F-2.7°C 23.0°F-5.0°C 84% 4.0 mph NW6.4 kmh NW 5.0 mph8.0 kmh 30.40 in1029.5 mb 0.00 in0.0 mm 0.00 in/hr0.0 mm/hr 0.00 in0.0 mm
11:46 AM 27.4°F-2.6°C 23.2°F-4.9°C 84% 1.0 mph NNW1.6 kmh NNW 3.0 mph4.8 kmh 30.40 in1029.5 mb 0.00 in0.0 mm 0.00 in/hr0.0 mm/hr 0.00 in0.0 mm
12:01 PM 27.9°F-2.3°C 23.1°F-4.9°C 82% Calm Calm 2.0 mph3.2 kmh 30.40 in1029.5 mb 0.00 in0.0 mm 0.00 in/hr0.0 mm/hr 0.00 in0.0 mm
12:15 PM 28.3°F-2.1°C 23.5°F-4.7°C 82% Calm Calm 2.0 mph3.2 kmh 30.39 in1029.1 mb 0.00 in0.0 mm 0.00 in/hr0.0 mm/hr 0.00 in0.0 mm
12:31 PM 28.5°F-1.9°C 23.4°F-4.8°C 81% Calm Calm 2.0 mph3.2 kmh 30.39 in1029.1 mb 0.00 in0.0 mm 0.00 in/hr0.0 mm/hr 0.00 in0.0 mm
12:45 PM 28.5°F-1.9°C 24.0°F-4.4°C 83% 2.0 mph ESE3.2 kmh ESE 3.0 mph4.8 kmh 30.37 in1028.4 mb 0.00 in0.0 mm 0.00 in/hr0.0 mm/hr 0.00 in0.0 mm
01:02 PM 28.4°F-2.0°C 23.6°F-4.7°C 82% 2.0 mph SSE3.2 kmh SSE 3.0 mph4.8 kmh 30.36 in1028.1 mb 0.00 in0.0 mm 0.00 in/hr0.0 mm/hr 0.00 in0.0 mm
01:16 PM 28.4°F-2.0°C 24.5°F-4.2°C 85% 3.0 mph SE4.8 kmh SE 5.0 mph8.0 kmh 30.35 in1027.8 mb 0.00 in0.0 mm 0.00 in/hr0.0 mm/hr 0.00 in0.0 mm
01:31 PM 28.3°F-2.1°C 23.8°F-4.6°C 83% 3.0 mph SSE4.8 kmh SSE 4.0 mph6.4 kmh 30.35 in1027.8 mb 0.00 in0.0 mm 0.00 in/hr0.0 mm/hr 0.00 in0.0 mm
01:46 PM 27.8°F-2.3°C 23.3°F-4.8°C 83% 3.0 mph SSE4.8 kmh SSE 5.0 mph8.0 kmh 30.35 in1027.8 mb 0.00 in0.0 mm 0.00 in/hr0.0 mm/hr 0.00 in0.0 mm
02:01 PM 27.8°F-2.3°C 23.9°F-4.5°C 85% 4.0 mph S6.4 kmh S 5.0 mph8.0 kmh 30.35 in1027.8 mb 0.00 in0.0 mm 0.00 in/hr0.0 mm/hr 0.00 in0.0 mm
02:16 PM 27.9°F-2.3°C 23.7°F-4.6°C 84% 3.0 mph SSE4.8 kmh SSE 5.0 mph8.0 kmh 30.34 in1027.4 mb 0.00 in0.0 mm 0.00 in/hr0.0 mm/hr 0.00 in0.0 mm
02:30 PM 27.9°F-2.3°C 23.7°F-4.6°C 84% 4.0 mph S6.4 kmh S 5.0 mph8.0 kmh 30.33 in1027.1 mb 0.00 in0.0 mm 0.00 in/hr0.0 mm/hr 0.00 in0.0 mm
02:46 PM 27.9°F-2.3°C 23.7°F-4.6°C 84% 4.0 mph SSE6.4 kmh SSE 6.0 mph9.7 kmh 30.33 in1027.1 mb 0.00 in0.0 mm 0.00 in/hr0.0 mm/hr 0.00 in0.0 mm
03:01 PM 28.0°F-2.2°C 24.1°F-4.4°C 85% 4.0 mph S6.4 kmh S 5.0 mph8.0 kmh 30.32 in1026.8 mb 0.00 in0.0 mm 0.00 in/hr0.0 mm/hr 0.00 in0.0 mm
03:15 PM 28.0°F-2.2°C 24.1°F-4.4°C 85% 5.0 mph S8.0 kmh S 7.0 mph11.3 kmh 30.32 in1026.8 mb 0.00 in0.0 mm 0.00 in/hr0.0 mm/hr 0.00 in0.0 mm
03:31 PM 28.2°F-2.1°C 24.6°F-4.1°C 86% 7.0 mph S11.3 kmh S 8.0 mph12.9 kmh 30.32 in1026.8 mb 0.00 in0.0 mm 0.00 in/hr0.0 mm/hr 0.00 in0.0 mm
03:46 PM 28.2°F-2.1°C 24.6°F-4.1°C 86% 7.0 mph S11.3 kmh S 10.0 mph16.1 kmh 30.32 in1026.8 mb 0.00 in0.0 mm 0.00 in/hr0.0 mm/hr 0.00 in0.0 mm
04:02 PM 28.1°F-2.2°C 24.5°F-4.2°C 86% 9.0 mph S14.5 kmh S 12.0 mph19.3 kmh 30.32 in1026.8 mb 0.00 in0.0 mm 0.00 in/hr0.0 mm/hr 0.00 in0.0 mm
04:15 PM 28.1°F-2.2°C 24.5°F-4.2°C 86% 10.0 mph S16.1 kmh S 12.0 mph19.3 kmh 30.32 in1026.8 mb 0.00 in0.0 mm 0.00 in/hr0.0 mm/hr 0.00 in0.0 mm
04:30 PM 28.0°F-2.2°C 24.4°F-4.2°C 86% 9.0 mph S14.5 kmh S 11.0 mph17.7 kmh 30.32 in1026.8 mb 0.00 in0.0 mm 0.00 in/hr0.0 mm/hr 0.00 in0.0 mm
04:46 PM 28.1°F-2.2°C 24.7°F-4.1°C 87% 8.0 mph S12.9 kmh S 11.0 mph17.7 kmh 30.31 in1026.4 mb 0.00 in0.0 mm 0.00 in/hr0.0 mm/hr 0.00 in0.0 mm
05:01 PM 28.3°F-2.1°C 24.7°F-4.1°C 86% 4.0 mph S6.4 kmh S 7.0 mph11.3 kmh 30.31 in1026.4 mb 0.00 in0.0 mm 0.00 in/hr0.0 mm/hr 0.00 in0.0 mm
05:15 PM 28.5°F-1.9°C 24.9°F-3.9°C 86% 4.0 mph SSW6.4 kmh SSW 5.0 mph8.0 kmh 30.30 in1026.1 mb 0.00 in0.0 mm 0.00 in/hr0.0 mm/hr 0.00 in0.0 mm
05:30 PM 28.6°F-1.9°C 24.7°F-4.1°C 85% 5.0 mph S8.0 kmh S 6.0 mph9.7 kmh 30.30 in1026.1 mb 0.00 in0.0 mm 0.00 in/hr0.0 mm/hr 0.00 in0.0 mm
05:46 PM 28.6°F-1.9°C 25.0°F-3.9°C 86% 4.0 mph SSW6.4 kmh SSW 6.0 mph9.7 kmh 30.31 in1026.4 mb 0.00 in0.0 mm 0.00 in/hr0.0 mm/hr 0.00 in0.0 mm
06:02 PM 28.7°F-1.8°C 24.8°F-4.0°C 85% 4.0 mph SW6.4 kmh SW 5.0 mph8.0 kmh 30.31 in1026.4 mb 0.00 in0.0 mm 0.00 in/hr0.0 mm/hr 0.00 in0.0 mm
06:15 PM 28.8°F-1.8°C 25.2°F-3.8°C 86% 4.0 mph SW6.4 kmh SW 5.0 mph8.0 kmh 30.30 in1026.1 mb 0.00 in0.0 mm 0.00 in/hr0.0 mm/hr 0.00 in0.0 mm
06:31 PM 28.9°F-1.7°C 25.3°F-3.7°C 86% 3.0 mph S4.8 kmh S 5.0 mph8.0 kmh 30.29 in1025.7 mb 0.00 in0.0 mm 0.00 in/hr0.0 mm/hr 0.00 in0.0 mm
06:46 PM 29.0°F-1.7°C 25.6°F-3.6°C 87% 2.0 mph S3.2 kmh S 3.0 mph4.8 kmh 30.29 in1025.7 mb 0.00 in0.0 mm 0.00 in/hr0.0 mm/hr 0.00 in0.0 mm
07:01 PM 29.0°F-1.7°C 25.4°F-3.7°C 86% 4.0 mph S6.4 kmh S 4.0 mph6.4 kmh 30.29 in1025.7 mb 0.00 in0.0 mm 0.00 in/hr0.0 mm/hr 0.00 in0.0 mm
07:16 PM 29.0°F-1.7°C 25.6°F-3.6°C 87% 5.0 mph S8.0 kmh S 6.0 mph9.7 kmh 30.28 in1025.4 mb 0.00 in0.0 mm 0.00 in/hr0.0 mm/hr 0.00 in0.0 mm
07:30 PM 29.0°F-1.7°C 25.6°F-3.6°C 87% 5.0 mph S8.0 kmh S 5.0 mph8.0 kmh 30.28 in1025.4 mb 0.00 in0.0 mm 0.00 in/hr0.0 mm/hr 0.00 in0.0 mm
07:46 PM 29.0°F-1.7°C 25.6°F-3.6°C 87% 3.0 mph S4.8 kmh S 4.0 mph6.4 kmh 30.28 in1025.4 mb 0.00 in0.0 mm 0.00 in/hr0.0 mm/hr 0.00 in0.0 mm
08:02 PM 29.1°F-1.6°C 26.0°F-3.3°C 88% 4.0 mph S6.4 kmh S 4.0 mph6.4 kmh 30.27 in1025.1 mb 0.00 in0.0 mm 0.00 in/hr0.0 mm/hr 0.00 in0.0 mm
08:15 PM 29.2°F-1.6°C 26.1°F-3.3°C 88% 2.0 mph S3.2 kmh S 5.0 mph8.0 kmh 30.28 in1025.4 mb 0.00 in0.0 mm 0.00 in/hr0.0 mm/hr 0.00 in0.0 mm
08:30 PM 29.3°F-1.5°C 26.2°F-3.2°C 88% 3.0 mph SSW4.8 kmh SSW 4.0 mph6.4 kmh 30.28 in1025.4 mb 0.00 in0.0 mm 0.00 in/hr0.0 mm/hr 0.00 in0.0 mm
09:15 PM 29.0°F-1.7°C 26.2°F-3.2°C 89% 2.0 mph S3.2 kmh S 3.0 mph4.8 kmh 30.27 in1025.1 mb 0.00 in0.0 mm 0.00 in/hr0.0 mm/hr 0.00 in0.0 mm
09:31 PM 28.8°F-1.8°C 26.0°F-3.3°C 89% 2.0 mph S3.2 kmh S 2.0 mph3.2 kmh 30.27 in1025.1 mb 0.00 in0.0 mm 0.00 in/hr0.0 mm/hr 0.00 in0.0 mm
10:16 PM 28.5°F-1.9°C 25.7°F-3.5°C 89% 3.0 mph SSE4.8 kmh SSE 4.0 mph6.4 kmh 30.25 in1024.4 mb 0.00 in0.0 mm 0.00 in/hr0.0 mm/hr 0.00 in0.0 mm
10:31 PM 28.5°F-1.9°C 25.7°F-3.5°C 89% 3.0 mph S4.8 kmh S 4.0 mph6.4 kmh 30.24 in1024.0 mb 0.00 in0.0 mm 0.00 in/hr0.0 mm/hr 0.00 in0.0 mm
10:45 PM 28.2°F-2.1°C 25.4°F-3.7°C 89% 4.0 mph SSE6.4 kmh SSE 4.0 mph6.4 kmh 30.23 in1023.7 mb 0.00 in0.0 mm 0.00 in/hr0.0 mm/hr 0.00 in0.0 mm
11:01 PM 28.1°F-2.2°C 25.3°F-3.7°C 89% 3.0 mph S4.8 kmh S 4.0 mph6.4 kmh 30.23 in1023.7 mb 0.00 in0.0 mm 0.00 in/hr0.0 mm/hr 0.00 in0.0 mm
11:16 PM 28.1°F-2.2°C 25.3°F-3.7°C 89% 4.0 mph S6.4 kmh S 5.0 mph8.0 kmh 30.23 in1023.7 mb 0.00 in0.0 mm 0.00 in/hr0.0 mm/hr 0.00 in0.0 mm
11:31 PM 28.3°F-2.1°C 25.5°F-3.6°C 89% 4.0 mph SSE6.4 kmh SSE 6.0 mph9.7 kmh 30.23 in1023.7 mb 0.00 in0.0 mm 0.00 in/hr0.0 mm/hr 0.00 in0.0 mm
11:45 PM 28.2°F-2.1°C 25.7°F-3.5°C 90% 6.0 mph S9.7 kmh S 7.0 mph11.3 kmh 30.23 in1023.7 mb 0.00 in0.0 mm 0.00 in/hr0.0 mm/hr 0.00 in0.0 mm